createdAt,value
2022-10-16T00:03:18.614Z,14.2
2022-10-16T00:08:23.085Z,14.1
2022-10-16T00:13:27.578Z,14.2
2022-10-16T00:18:31.192Z,14.2
2022-10-16T00:23:35.686Z,14.1
2022-10-16T00:28:40.269Z,14.1
2022-10-16T00:33:43.804Z,14.1
2022-10-16T00:38:48.344Z,14.1
2022-10-16T00:43:52.834Z,14.1
2022-10-16T00:48:56.504Z,14.1
2022-10-16T00:54:00.887Z,14
2022-10-16T00:59:05.463Z,14
2022-10-16T01:04:09.062Z,14
2022-10-16T01:09:13.510Z,14.1
2022-10-16T01:14:18.054Z,14.1
2022-10-16T01:19:22.612Z,14
2022-10-16T01:24:26.153Z,14
2022-10-16T01:29:30.672Z,14
2022-10-16T01:34:35.208Z,13.9
2022-10-16T01:39:38.753Z,13.9
2022-10-16T01:44:43.317Z,13.9
2022-10-16T01:49:47.825Z,13.8
2022-10-16T01:54:51.362Z,13.8
2022-10-16T01:59:54.915Z,13.7
2022-10-16T02:04:59.496Z,13.8
2022-10-16T02:10:03.986Z,13.8
2022-10-16T02:15:08.502Z,13.7
2022-10-16T02:20:12.091Z,13.7
2022-10-16T02:25:16.632Z,13.8
2022-10-16T02:30:21.119Z,13.7
2022-10-16T02:35:24.704Z,13.7
2022-10-16T02:40:29.239Z,13.7
2022-10-16T02:45:33.723Z,13.7
2022-10-16T02:50:37.351Z,13.6
2022-10-16T02:55:41.835Z,13.6
2022-10-16T03:00:46.509Z,13.6
2022-10-16T03:05:49.988Z,13.6
2022-10-16T03:10:54.468Z,13.6
2022-10-16T03:15:58.989Z,13.6
2022-10-16T03:21:03.516Z,13.5
2022-10-16T03:26:07.072Z,13.6
2022-10-16T03:31:11.589Z,13.6
2022-10-16T03:36:16.147Z,13.6
2022-10-16T03:41:19.658Z,13.5
2022-10-16T03:46:24.234Z,13.6
2022-10-16T03:51:28.805Z,13.7
2022-10-16T03:56:32.299Z,13.7
2022-10-16T04:01:36.816Z,13.8
2022-10-16T04:06:41.378Z,13.7
2022-10-16T04:11:45.901Z,13.8
2022-10-16T04:16:49.454Z,13.7
2022-10-16T04:21:53.998Z,13.6
2022-10-16T04:26:58.514Z,13.6
2022-10-16T04:32:02.039Z,13.7
2022-10-16T04:37:06.611Z,13.6
2022-10-16T04:42:11.090Z,13.6
2022-10-16T04:47:14.645Z,13.7
2022-10-16T04:52:19.202Z,13.7
2022-10-16T04:57:24.063Z,13.7
2022-10-16T05:02:27.362Z,13.7
2022-10-16T05:07:31.810Z,13.7
2022-10-16T05:12:36.329Z,13.8
2022-10-16T05:17:42.638Z,13.7
2022-10-16T05:22:44.441Z,13.8
2022-10-16T05:27:48.960Z,13.8
2022-10-16T05:32:53.517Z,13.9
2022-10-16T05:37:57.115Z,13.9
2022-10-16T05:43:01.557Z,13.8
2022-10-16T05:48:06.108Z,13.8
2022-10-16T05:53:09.711Z,13.8
2022-10-16T05:58:14.198Z,13.9
2022-10-16T06:03:18.727Z,13.9
2022-10-16T06:08:22.263Z,14.1
2022-10-16T06:13:26.864Z,14.2
2022-10-16T06:18:30.353Z,14.2
2022-10-16T06:23:34.975Z,14.2
2022-10-16T06:28:39.528Z,14.2
2022-10-16T06:33:42.995Z,14.2
2022-10-16T06:38:47.495Z,14.3
2022-10-16T06:43:52.010Z,14.3
2022-10-16T06:48:55.607Z,14.4
2022-10-16T06:54:03.290Z,14.3
2022-10-16T06:59:04.659Z,14.5
2022-10-16T07:04:08.183Z,14.5
2022-10-16T07:09:12.780Z,14.6
2022-10-16T07:14:17.244Z,14.6
2022-10-16T07:19:21.794Z,14.7
2022-10-16T07:24:25.352Z,14.7
2022-10-16T07:29:29.859Z,14.7
2022-10-16T07:34:34.408Z,14.6
2022-10-16T07:39:37.982Z,14.9
2022-10-16T07:44:42.508Z,14.9
2022-10-16T07:49:47.009Z,14.8
2022-10-16T07:54:50.614Z,14.8
2022-10-16T07:59:55.149Z,14.9
2022-10-16T08:04:59.639Z,15
2022-10-16T08:10:03.227Z,15
2022-10-16T08:15:07.743Z,14.8
2022-10-16T08:20:12.290Z,14.7
2022-10-16T08:25:16.880Z,14.6
2022-10-16T08:30:20.382Z,14.8
2022-10-16T08:35:24.874Z,14.7
2022-10-16T08:40:29.462Z,14.8
2022-10-16T08:45:32.988Z,14.7
2022-10-16T08:50:37.471Z,14.9
2022-10-16T08:55:42.051Z,15
2022-10-16T09:00:45.685Z,14.8
2022-10-16T09:05:50.090Z,14.8
2022-10-16T09:10:54.649Z,14.9
2022-10-16T09:15:58.188Z,14.8
2022-10-16T09:21:02.750Z,14.7
2022-10-16T09:26:07.306Z,14.7
2022-10-16T09:31:11.764Z,14.5
2022-10-16T09:36:15.326Z,14.8
2022-10-16T09:41:19.926Z,14.9
2022-10-16T09:46:24.394Z,15.3
2022-10-16T09:51:27.927Z,15.2
2022-10-16T09:56:32.541Z,15.9
2022-10-16T10:01:37.010Z,15
2022-10-16T10:06:40.625Z,15
2022-10-16T10:11:45.159Z,15.1
2022-10-16T10:16:49.643Z,15.1
2022-10-16T10:21:53.210Z,16
2022-10-16T10:26:57.820Z,16.2
2022-10-16T10:32:01.286Z,14.7
2022-10-16T10:37:05.848Z,15.1
2022-10-16T10:42:10.467Z,14.5
2022-10-16T10:47:13.984Z,14.7
2022-10-16T10:52:18.455Z,14.8
2022-10-16T10:57:23.036Z,15.4
2022-10-16T11:02:26.850Z,15.6
2022-10-16T11:07:31.096Z,15.5
2022-10-16T11:12:35.651Z,14.8
2022-10-16T11:17:40.200Z,14.8
2022-10-16T11:22:43.766Z,15.6
2022-10-16T11:27:48.298Z,15.5
2022-10-16T11:32:52.821Z,15.4
2022-10-16T11:37:56.383Z,15.2
2022-10-16T11:43:00.979Z,15.4
2022-10-16T11:48:05.935Z,14.7
2022-10-16T11:53:08.996Z,15.5
2022-10-16T11:58:13.564Z,15.3
2022-10-16T12:03:18.165Z,15
2022-10-16T12:08:21.610Z,15.1
2022-10-16T12:13:26.160Z,15.1
2022-10-16T12:18:30.679Z,14.9
2022-10-16T12:23:35.218Z,14.6
2022-10-16T12:28:38.854Z,15
2022-10-16T12:33:43.297Z,15
2022-10-16T12:38:47.857Z,15.2
2022-10-16T12:43:51.429Z,15.3
2022-10-16T12:49:06.636Z,15.6
2022-10-16T12:54:00.447Z,15.5
2022-10-16T12:59:04.048Z,15.3
2022-10-16T13:04:08.605Z,15.2
2022-10-16T13:09:13.057Z,15.1
2022-10-16T13:14:16.653Z,15.6
2022-10-16T13:19:21.160Z,15.5
2022-10-16T13:24:25.697Z,15
2022-10-16T13:29:30.264Z,15.4
2022-10-16T13:34:33.794Z,15.6
2022-10-16T13:39:38.327Z,15.4
2022-10-16T13:44:42.908Z,15.5
2022-10-16T13:49:46.418Z,15.6
2022-10-16T13:54:50.932Z,15.3
2022-10-16T13:59:55.489Z,15.5
2022-10-16T14:04:59.040Z,15.6
2022-10-16T14:10:03.570Z,15.8
2022-10-16T14:15:08.102Z,16
2022-10-16T14:20:11.624Z,16.1
2022-10-16T14:25:16.217Z,15.9
2022-10-16T14:30:20.746Z,16
2022-10-16T14:35:25.230Z,15.8
2022-10-16T14:40:28.766Z,15.8
2022-10-16T14:45:32.346Z,16
2022-10-16T14:50:36.863Z,15.9
2022-10-16T14:55:41.404Z,16
2022-10-16T15:00:44.983Z,16
2022-10-16T15:05:49.508Z,15.9
2022-10-16T15:10:54.035Z,15.9
2022-10-16T15:15:58.570Z,15.9
2022-10-16T15:21:02.129Z,16
2022-10-16T15:26:06.644Z,16
2022-10-16T15:31:11.218Z,15.9
2022-10-16T15:36:14.708Z,16
2022-10-16T15:41:19.268Z,16
2022-10-16T15:46:23.818Z,16
2022-10-16T15:51:27.324Z,16
2022-10-16T15:56:31.919Z,16.1
2022-10-16T16:01:36.514Z,16.1
2022-10-16T16:06:39.956Z,16.1
2022-10-16T16:11:44.504Z,16.2
2022-10-16T16:16:49.498Z,16.2
2022-10-16T16:21:53.599Z,16.2
2022-10-16T16:26:57.159Z,16.2
2022-10-16T16:32:01.689Z,16.1
2022-10-16T16:37:06.159Z,16.1
2022-10-16T16:42:09.724Z,16.1
2022-10-16T16:47:14.295Z,16.2
2022-10-16T16:52:18.856Z,16.1
2022-10-16T16:57:22.369Z,16.1
2022-10-16T17:02:26.913Z,16.1
2022-10-16T17:07:31.419Z,16.1
2022-10-16T17:12:34.981Z,16
2022-10-16T17:17:39.552Z,16.1
2022-10-16T17:22:44.015Z,16.1
2022-10-16T17:27:48.543Z,16
2022-10-16T17:32:52.118Z,16
2022-10-16T17:37:56.657Z,16
2022-10-16T17:43:01.188Z,16
2022-10-16T17:48:04.770Z,15.9
2022-10-16T17:53:09.277Z,16
2022-10-16T17:58:13.788Z,15.9
2022-10-16T18:03:17.423Z,16
2022-10-16T18:08:23.789Z,16
2022-10-16T18:13:26.408Z,16
2022-10-16T18:18:30.054Z,16
2022-10-16T18:23:34.482Z,16
2022-10-16T18:28:39.050Z,16.1
2022-10-16T18:33:43.566Z,16.2
2022-10-16T18:38:47.121Z,16.2
2022-10-16T18:43:51.636Z,16.3
2022-10-16T18:48:56.214Z,16.2
2022-10-16T18:53:59.752Z,16.3
2022-10-16T18:59:03.303Z,16.3
2022-10-16T19:04:07.897Z,16.3
2022-10-16T19:09:12.324Z,16.4
2022-10-16T19:14:16.902Z,16.4
2022-10-16T19:19:20.497Z,16.3
2022-10-16T19:24:24.965Z,16.4
2022-10-16T19:29:29.530Z,16.4
2022-10-16T19:34:33.094Z,16.4
2022-10-16T19:39:37.621Z,16.5
2022-10-16T19:44:42.104Z,16.6
2022-10-16T19:49:45.701Z,16.6
2022-10-16T19:54:50.191Z,16.5
2022-10-16T19:59:54.746Z,16.6
2022-10-16T20:04:58.313Z,16.6
2022-10-16T20:10:02.861Z,16.6
2022-10-16T20:15:07.338Z,16.6
2022-10-16T20:20:11.909Z,16.7
2022-10-16T20:25:18.231Z,16.7
2022-10-16T20:30:19.977Z,16.6
2022-10-16T20:35:24.548Z,16.8
2022-10-16T20:40:28.096Z,16.8
2022-10-16T20:45:32.584Z,16.7
2022-10-16T20:50:37.180Z,16.7
2022-10-16T20:55:40.661Z,16.7
2022-10-16T21:00:45.242Z,16.6
2022-10-16T21:05:49.762Z,16.7
2022-10-16T21:10:53.304Z,16.8
2022-10-16T21:15:57.805Z,16.8
2022-10-16T21:21:02.400Z,16.8
2022-10-16T21:26:07.081Z,16.9
2022-10-16T21:31:10.423Z,16.8
2022-10-16T21:36:15.012Z,16.8
2022-10-16T21:41:19.487Z,16.8
2022-10-16T21:46:23.060Z,16.7
2022-10-16T21:51:27.628Z,16.7
2022-10-16T21:56:32.147Z,16.6
2022-10-16T22:01:35.753Z,16.7
2022-10-16T22:06:40.251Z,16.7
2022-10-16T22:11:44.761Z,16.8
2022-10-16T22:16:48.277Z,16.9
2022-10-16T22:21:52.862Z,16.9
2022-10-16T22:26:57.355Z,16.8
2022-10-16T22:32:01.895Z,16.9
2022-10-16T22:37:05.484Z,16.8
2022-10-16T22:42:09.966Z,16.8
2022-10-16T22:47:14.506Z,16.7
2022-10-16T22:52:18.061Z,16.8
2022-10-16T22:57:22.587Z,16.7
2022-10-16T23:02:27.562Z,16.7
2022-10-16T23:07:30.699Z,16.7
2022-10-16T23:12:35.190Z,16.7
2022-10-16T23:17:38.746Z,16.7
2022-10-16T23:22:43.339Z,16.7
2022-10-16T23:27:47.837Z,16.7
2022-10-16T23:32:51.366Z,16.7
2022-10-16T23:37:55.947Z,16.6
2022-10-16T23:43:00.444Z,16.6
2022-10-16T23:48:04.045Z,16.6
2022-10-16T23:53:10.210Z,16.6
2022-10-16T23:58:13.071Z,16.6
